sensor_id;sensor_type;location;lat;lon;timestamp;P1;durP1;ratioP1;P2;durP2;ratioP2
67554;SDS011;54385;53.516;49.456;2023-04-29T00:04:17;12.60;;;8.60;;
67554;SDS011;54385;53.516;49.456;2023-04-29T00:06:44;15.80;;;8.05;;
67554;SDS011;54385;53.516;49.456;2023-04-29T00:09:11;14.73;;;9.30;;
67554;SDS011;54385;53.516;49.456;2023-04-29T00:11:38;10.25;;;8.80;;
67554;SDS011;54385;53.516;49.456;2023-04-29T00:16:31;15.40;;;8.77;;
67554;SDS011;54385;53.516;49.456;2023-04-29T00:18:58;18.33;;;7.85;;
67554;SDS011;54385;53.516;49.456;2023-04-29T00:21:25;16.23;;;7.75;;
67554;SDS011;54385;53.516;49.456;2023-04-29T00:23:54;12.50;;;7.88;;
67554;SDS011;54385;53.516;49.456;2023-04-29T00:26:21;13.43;;;6.68;;
67554;SDS011;54385;53.516;49.456;2023-04-29T00:31:14;8.05;;;5.80;;
67554;SDS011;54385;53.516;49.456;2023-04-29T00:33:40;8.82;;;5.47;;
67554;SDS011;54385;53.516;49.456;2023-04-29T00:36:07;7.90;;;5.20;;
67554;SDS011;54385;53.516;49.456;2023-04-29T00:38:34;5.65;;;4.55;;
67554;SDS011;54385;53.516;49.456;2023-04-29T00:41:00;5.43;;;3.95;;
67554;SDS011;54385;53.516;49.456;2023-04-29T00:43:27;7.28;;;4.40;;
67554;SDS011;54385;53.516;49.456;2023-04-29T00:48:20;8.95;;;4.03;;
67554;SDS011;54385;53.516;49.456;2023-04-29T00:50:47;7.82;;;4.10;;
67554;SDS011;54385;53.516;49.456;2023-04-29T00:53:14;7.65;;;4.07;;
67554;SDS011;54385;53.516;49.456;2023-04-29T00:55:40;4.82;;;3.50;;
67554;SDS011;54385;53.516;49.456;2023-04-29T00:58:09;5.45;;;4.03;;
67554;SDS011;54385;53.516;49.456;2023-04-29T01:00:36;5.22;;;3.70;;
67554;SDS011;54385;53.516;49.456;2023-04-29T01:03:06;8.23;;;4.30;;
67554;SDS011;54385;53.516;49.456;2023-04-29T01:05:34;10.73;;;3.90;;
67554;SDS011;54385;53.516;49.456;2023-04-29T01:10:52;4.70;;;3.38;;
67554;SDS011;54385;53.516;49.456;2023-04-29T01:16:33;8.38;;;3.47;;
67554;SDS011;54385;53.516;49.456;2023-04-29T01:19:54;4.53;;;3.47;;
67554;SDS011;54385;53.516;49.456;2023-04-29T01:21:57;7.88;;;4.38;;
67554;SDS011;54385;53.516;49.456;2023-04-29T01:24:24;14.48;;;5.95;;
67554;SDS011;54385;53.516;49.456;2023-04-29T01:26:53;6.70;;;3.90;;
67554;SDS011;54385;53.516;49.456;2023-04-29T01:29:34;4.55;;;3.30;;
67554;SDS011;54385;53.516;49.456;2023-04-29T01:34:51;5.70;;;3.60;;
67554;SDS011;54385;53.516;49.456;2023-04-29T01:37:32;5.03;;;3.75;;
67554;SDS011;54385;53.516;49.456;2023-04-29T01:40:08;5.75;;;3.40;;
67554;SDS011;54385;53.516;49.456;2023-04-29T01:42:47;12.20;;;4.53;;
67554;SDS011;54385;53.516;49.456;2023-04-29T01:45:31;7.05;;;3.92;;
67554;SDS011;54385;53.516;49.456;2023-04-29T01:47:58;8.10;;;3.58;;
67554;SDS011;54385;53.516;49.456;2023-04-29T01:50:27;19.10;;;4.70;;
67554;SDS011;54385;53.516;49.456;2023-04-29T01:52:55;14.85;;;4.88;;
67554;SDS011;54385;53.516;49.456;2023-04-29T01:57:47;17.85;;;5.35;;
67554;SDS011;54385;53.516;49.456;2023-04-29T02:00:14;15.10;;;4.18;;
67554;SDS011;54385;53.516;49.456;2023-04-29T02:02:40;9.52;;;3.78;;
67554;SDS011;54385;53.516;49.456;2023-04-29T02:05:07;8.00;;;4.13;;
67554;SDS011;54385;53.516;49.456;2023-04-29T02:07:34;10.50;;;4.13;;
67554;SDS011;54385;53.516;49.456;2023-04-29T02:12:27;26.23;;;5.50;;
67554;SDS011;54385;53.516;49.456;2023-04-29T02:14:53;8.77;;;3.50;;
67554;SDS011;54385;53.516;49.456;2023-04-29T02:17:19;43.65;;;7.05;;
67554;SDS011;54385;53.516;49.456;2023-04-29T02:19:46;19.70;;;5.18;;
67554;SDS011;54385;53.516;49.456;2023-04-29T02:22:12;9.18;;;3.75;;
67554;SDS011;54385;53.516;49.456;2023-04-29T02:24:39;5.65;;;3.92;;
67554;SDS011;54385;53.516;49.456;2023-04-29T02:27:06;21.13;;;4.70;;
67554;SDS011;54385;53.516;49.456;2023-04-29T02:29:32;12.20;;;3.65;;
67554;SDS011;54385;53.516;49.456;2023-04-29T02:31:59;37.40;;;4.90;;
67554;SDS011;54385;53.516;49.456;2023-04-29T02:34:25;5.85;;;3.10;;
67554;SDS011;54385;53.516;49.456;2023-04-29T02:36:52;19.35;;;3.90;;
67554;SDS011;54385;53.516;49.456;2023-04-29T02:39:19;5.88;;;3.60;;
67554;SDS011;54385;53.516;49.456;2023-04-29T02:41:46;4.65;;;3.38;;
67554;SDS011;54385;53.516;49.456;2023-04-29T02:44:12;4.28;;;2.90;;
67554;SDS011;54385;53.516;49.456;2023-04-29T02:46:39;5.07;;;3.28;;
67554;SDS011;54385;53.516;49.456;2023-04-29T02:49:11;15.15;;;3.22;;
67554;SDS011;54385;53.516;49.456;2023-04-29T02:51:38;7.10;;;3.47;;
67554;SDS011;54385;53.516;49.456;2023-04-29T02:54:06;9.05;;;3.03;;
67554;SDS011;54385;53.516;49.456;2023-04-29T02:56:32;9.35;;;3.22;;
67554;SDS011;54385;53.516;49.456;2023-04-29T02:58:59;3.67;;;2.80;;
67554;SDS011;54385;53.516;49.456;2023-04-29T03:01:25;9.10;;;2.85;;
67554;SDS011;54385;53.516;49.456;2023-04-29T03:03:51;5.95;;;2.72;;
67554;SDS011;54385;53.516;49.456;2023-04-29T03:06:19;4.30;;;2.92;;
67554;SDS011;54385;53.516;49.456;2023-04-29T03:08:46;5.03;;;3.05;;
67554;SDS011;54385;53.516;49.456;2023-04-29T03:11:12;9.23;;;3.25;;
67554;SDS011;54385;53.516;49.456;2023-04-29T03:13:39;30.17;;;4.47;;
67554;SDS011;54385;53.516;49.456;2023-04-29T03:16:05;12.00;;;3.05;;
67554;SDS011;54385;53.516;49.456;2023-04-29T03:18:32;6.50;;;2.85;;
67554;SDS011;54385;53.516;49.456;2023-04-29T03:20:58;9.18;;;2.83;;
67554;SDS011;54385;53.516;49.456;2023-04-29T03:23:25;7.35;;;3.13;;
67554;SDS011;54385;53.516;49.456;2023-04-29T03:25:52;5.07;;;2.88;;
67554;SDS011;54385;53.516;49.456;2023-04-29T03:28:20;8.02;;;2.92;;
67554;SDS011;54385;53.516;49.456;2023-04-29T03:30:46;10.90;;;2.70;;
67554;SDS011;54385;53.516;49.456;2023-04-29T03:33:13;11.18;;;3.33;;
67554;SDS011;54385;53.516;49.456;2023-04-29T03:35:39;5.70;;;2.63;;
67554;SDS011;54385;53.516;49.456;2023-04-29T03:38:06;10.48;;;2.70;;
67554;SDS011;54385;53.516;49.456;2023-04-29T03:40:32;8.98;;;4.20;;
67554;SDS011;54385;53.516;49.456;2023-04-29T03:42:58;6.20;;;4.10;;
67554;SDS011;54385;53.516;49.456;2023-04-29T03:45:27;10.88;;;3.95;;
67554;SDS011;54385;53.516;49.456;2023-04-29T03:47:54;6.35;;;3.47;;
67554;SDS011;54385;53.516;49.456;2023-04-29T03:50:21;7.55;;;3.55;;
67554;SDS011;54385;53.516;49.456;2023-04-29T03:52:48;4.97;;;2.65;;
67554;SDS011;54385;53.516;49.456;2023-04-29T03:55:14;8.07;;;2.22;;
67554;SDS011;54385;53.516;49.456;2023-04-29T03:57:41;6.97;;;2.55;;
67554;SDS011;54385;53.516;49.456;2023-04-29T04:00:08;3.35;;;2.45;;
67554;SDS011;54385;53.516;49.456;2023-04-29T04:02:34;6.57;;;2.47;;
67554;SDS011;54385;53.516;49.456;2023-04-29T04:05:01;4.88;;;2.63;;
67554;SDS011;54385;53.516;49.456;2023-04-29T04:07:27;4.57;;;2.33;;
67554;SDS011;54385;53.516;49.456;2023-04-29T04:09:54;6.40;;;3.10;;
67554;SDS011;54385;53.516;49.456;2023-04-29T04:12:20;5.00;;;3.15;;
67554;SDS011;54385;53.516;49.456;2023-04-29T04:14:46;4.93;;;2.53;;
67554;SDS011;54385;53.516;49.456;2023-04-29T04:17:13;5.80;;;3.00;;
67554;SDS011;54385;53.516;49.456;2023-04-29T04:19:40;8.13;;;2.70;;
67554;SDS011;54385;53.516;49.456;2023-04-29T04:22:06;4.93;;;2.50;;
67554;SDS011;54385;53.516;49.456;2023-04-29T04:24:32;3.13;;;2.10;;
67554;SDS011;54385;53.516;49.456;2023-04-29T04:26:59;42.90;;;4.40;;
67554;SDS011;54385;53.516;49.456;2023-04-29T04:29:26;8.45;;;2.83;;
67554;SDS011;54385;53.516;49.456;2023-04-29T04:31:52;6.10;;;2.28;;
67554;SDS011;54385;53.516;49.456;2023-04-29T04:34:19;5.25;;;2.17;;
67554;SDS011;54385;53.516;49.456;2023-04-29T04:36:45;12.73;;;3.33;;
67554;SDS011;54385;53.516;49.456;2023-04-29T04:39:12;3.97;;;2.33;;
67554;SDS011;54385;53.516;49.456;2023-04-29T04:41:38;9.68;;;2.95;;
67554;SDS011;54385;53.516;49.456;2023-04-29T04:44:05;4.65;;;2.35;;
67554;SDS011;54385;53.516;49.456;2023-04-29T04:46:31;4.32;;;2.28;;
67554;SDS011;54385;53.516;49.456;2023-04-29T04:48:58;8.23;;;2.40;;
67554;SDS011;54385;53.516;49.456;2023-04-29T04:51:25;26.75;;;3.92;;
67554;SDS011;54385;53.516;49.456;2023-04-29T04:53:53;6.03;;;2.33;;
67554;SDS011;54385;53.516;49.456;2023-04-29T04:56:20;5.78;;;2.17;;
67554;SDS011;54385;53.516;49.456;2023-04-29T04:58:46;4.07;;;2.33;;
67554;SDS011;54385;53.516;49.456;2023-04-29T05:01:13;18.38;;;2.88;;
67554;SDS011;54385;53.516;49.456;2023-04-29T05:03:39;4.53;;;2.42;;
67554;SDS011;54385;53.516;49.456;2023-04-29T05:06:06;4.97;;;2.05;;
67554;SDS011;54385;53.516;49.456;2023-04-29T05:08:32;10.98;;;2.88;;
67554;SDS011;54385;53.516;49.456;2023-04-29T05:10:58;4.40;;;2.05;;
67554;SDS011;54385;53.516;49.456;2023-04-29T05:13:25;6.13;;;2.53;;
67554;SDS011;54385;53.516;49.456;2023-04-29T05:15:52;4.43;;;1.98;;
67554;SDS011;54385;53.516;49.456;2023-04-29T05:18:19;8.90;;;2.70;;
67554;SDS011;54385;53.516;49.456;2023-04-29T05:20:45;4.95;;;2.20;;
67554;SDS011;54385;53.516;49.456;2023-04-29T05:23:12;4.88;;;1.95;;
67554;SDS011;54385;53.516;49.456;2023-04-29T05:25:38;4.63;;;2.10;;
67554;SDS011;54385;53.516;49.456;2023-04-29T05:28:04;5.60;;;2.17;;
67554;SDS011;54385;53.516;49.456;2023-04-29T05:30:32;16.45;;;3.30;;
67554;SDS011;54385;53.516;49.456;2023-04-29T05:32:58;3.58;;;1.80;;
67554;SDS011;54385;53.516;49.456;2023-04-29T05:35:25;11.85;;;3.97;;
67554;SDS011;54385;53.516;49.456;2023-04-29T05:37:51;9.57;;;2.50;;
67554;SDS011;54385;53.516;49.456;2023-04-29T05:40:18;4.70;;;2.35;;
67554;SDS011;54385;53.516;49.456;2023-04-29T05:42:45;11.93;;;3.67;;
67554;SDS011;54385;53.516;49.456;2023-04-29T05:45:11;5.30;;;2.00;;
67554;SDS011;54385;53.516;49.456;2023-04-29T05:47:38;2.28;;;1.60;;
67554;SDS011;54385;53.516;49.456;2023-04-29T05:50:04;23.45;;;10.07;;
67554;SDS011;54385;53.516;49.456;2023-04-29T05:52:32;32.05;;;14.93;;
67554;SDS011;54385;53.516;49.456;2023-04-29T05:54:58;12.82;;;4.97;;
67554;SDS011;54385;53.516;49.456;2023-04-29T05:57:24;6.22;;;2.50;;
67554;SDS011;54385;53.516;49.456;2023-04-29T05:59:51;5.82;;;2.17;;
67554;SDS011;54385;53.516;49.456;2023-04-29T06:02:19;3.28;;;1.60;;
67554;SDS011;54385;53.516;49.456;2023-04-29T06:04:46;3.55;;;2.10;;
67554;SDS011;54385;53.516;49.456;2023-04-29T06:07:12;4.47;;;1.60;;
67554;SDS011;54385;53.516;49.456;2023-04-29T06:09:39;3.88;;;1.73;;
67554;SDS011;54385;53.516;49.456;2023-04-29T06:12:06;3.10;;;1.95;;
67554;SDS011;54385;53.516;49.456;2023-04-29T06:14:33;9.15;;;2.15;;
67554;SDS011;54385;53.516;49.456;2023-04-29T06:16:59;6.13;;;2.70;;
67554;SDS011;54385;53.516;49.456;2023-04-29T06:19:26;6.07;;;2.88;;
67554;SDS011;54385;53.516;49.456;2023-04-29T06:21:53;2.63;;;1.77;;
67554;SDS011;54385;53.516;49.456;2023-04-29T06:24:19;4.57;;;1.77;;
67554;SDS011;54385;53.516;49.456;2023-04-29T06:26:49;4.30;;;1.83;;
67554;SDS011;54385;53.516;49.456;2023-04-29T06:29:16;5.68;;;1.75;;
67554;SDS011;54385;53.516;49.456;2023-04-29T06:31:42;4.18;;;2.10;;
67554;SDS011;54385;53.516;49.456;2023-04-29T06:34:08;6.43;;;2.05;;
67554;SDS011;54385;53.516;49.456;2023-04-29T06:36:36;6.53;;;1.90;;
67554;SDS011;54385;53.516;49.456;2023-04-29T06:39:02;4.40;;;1.90;;
67554;SDS011;54385;53.516;49.456;2023-04-29T06:41:29;7.57;;;1.98;;
67554;SDS011;54385;53.516;49.456;2023-04-29T06:43:55;5.35;;;2.10;;
67554;SDS011;54385;53.516;49.456;2023-04-29T06:46:22;10.75;;;2.70;;
67554;SDS011;54385;53.516;49.456;2023-04-29T06:48:48;3.58;;;1.90;;
67554;SDS011;54385;53.516;49.456;2023-04-29T06:51:15;7.35;;;2.53;;
67554;SDS011;54385;53.516;49.456;2023-04-29T06:53:41;5.57;;;1.80;;
67554;SDS011;54385;53.516;49.456;2023-04-29T06:56:08;24.25;;;2.85;;
67554;SDS011;54385;53.516;49.456;2023-04-29T06:58:34;6.55;;;1.92;;
67554;SDS011;54385;53.516;49.456;2023-04-29T07:01:01;9.27;;;2.10;;
67554;SDS011;54385;53.516;49.456;2023-04-29T07:03:28;3.85;;;1.80;;
67554;SDS011;54385;53.516;49.456;2023-04-29T07:05:59;9.88;;;1.98;;
67554;SDS011;54385;53.516;49.456;2023-04-29T07:08:26;7.50;;;1.80;;
67554;SDS011;54385;53.516;49.456;2023-04-29T07:10:54;6.50;;;1.85;;
67554;SDS011;54385;53.516;49.456;2023-04-29T07:13:21;2.53;;;1.63;;
67554;SDS011;54385;53.516;49.456;2023-04-29T07:15:48;2.50;;;1.88;;
67554;SDS011;54385;53.516;49.456;2023-04-29T07:18:15;6.55;;;1.80;;
67554;SDS011;54385;53.516;49.456;2023-04-29T07:20:41;5.85;;;1.90;;
67554;SDS011;54385;53.516;49.456;2023-04-29T07:23:11;4.28;;;2.05;;
67554;SDS011;54385;53.516;49.456;2023-04-29T07:25:37;2.25;;;1.90;;
67554;SDS011;54385;53.516;49.456;2023-04-29T07:28:04;10.90;;;4.93;;
67554;SDS011;54385;53.516;49.456;2023-04-29T07:30:31;3.70;;;1.90;;
67554;SDS011;54385;53.516;49.456;2023-04-29T07:32:58;11.15;;;2.53;;
67554;SDS011;54385;53.516;49.456;2023-04-29T07:35:25;3.70;;;1.70;;
67554;SDS011;54385;53.516;49.456;2023-04-29T07:37:52;6.47;;;1.80;;
67554;SDS011;54385;53.516;49.456;2023-04-29T07:40:19;3.58;;;2.00;;
67554;SDS011;54385;53.516;49.456;2023-04-29T07:42:45;6.45;;;2.42;;
67554;SDS011;54385;53.516;49.456;2023-04-29T07:45:11;9.80;;;2.45;;
67554;SDS011;54385;53.516;49.456;2023-04-29T07:47:38;7.03;;;2.10;;
67554;SDS011;54385;53.516;49.456;2023-04-29T07:50:05;3.15;;;1.55;;
67554;SDS011;54385;53.516;49.456;2023-04-29T07:52:32;6.25;;;2.20;;
67554;SDS011;54385;53.516;49.456;2023-04-29T07:54:59;4.07;;;1.70;;
67554;SDS011;54385;53.516;49.456;2023-04-29T07:57:25;3.90;;;1.83;;
67554;SDS011;54385;53.516;49.456;2023-04-29T07:59:52;7.65;;;1.75;;
67554;SDS011;54385;53.516;49.456;2023-04-29T08:02:19;4.45;;;2.10;;
67554;SDS011;54385;53.516;49.456;2023-04-29T08:04:46;3.08;;;1.83;;
67554;SDS011;54385;53.516;49.456;2023-04-29T08:07:12;4.47;;;2.03;;
67554;SDS011;54385;53.516;49.456;2023-04-29T08:09:39;5.07;;;1.95;;
67554;SDS011;54385;53.516;49.456;2023-04-29T08:12:05;1.70;;;1.60;;
67554;SDS011;54385;53.516;49.456;2023-04-29T08:14:32;3.72;;;2.10;;
67554;SDS011;54385;53.516;49.456;2023-04-29T08:16:58;4.38;;;2.00;;
67554;SDS011;54385;53.516;49.456;2023-04-29T08:19:25;39.30;;;4.82;;
67554;SDS011;54385;53.516;49.456;2023-04-29T08:21:51;3.75;;;1.80;;
67554;SDS011;54385;53.516;49.456;2023-04-29T08:24:18;4.15;;;1.90;;
67554;SDS011;54385;53.516;49.456;2023-04-29T08:26:45;6.18;;;2.03;;
67554;SDS011;54385;53.516;49.456;2023-04-29T08:29:12;2.60;;;2.05;;
67554;SDS011;54385;53.516;49.456;2023-04-29T08:31:39;11.07;;;2.50;;
67554;SDS011;54385;53.516;49.456;2023-04-29T08:34:05;3.97;;;2.00;;
67554;SDS011;54385;53.516;49.456;2023-04-29T08:36:32;3.25;;;1.83;;
67554;SDS011;54385;53.516;49.456;2023-04-29T08:38:58;3.10;;;2.00;;
67554;SDS011;54385;53.516;49.456;2023-04-29T08:41:25;4.97;;;1.80;;
67554;SDS011;54385;53.516;49.456;2023-04-29T08:43:51;7.05;;;1.98;;
67554;SDS011;54385;53.516;49.456;2023-04-29T08:46:18;4.47;;;1.85;;
67554;SDS011;54385;53.516;49.456;2023-04-29T08:48:46;3.70;;;1.92;;
67554;SDS011;54385;53.516;49.456;2023-04-29T08:51:13;2.95;;;2.30;;
67554;SDS011;54385;53.516;49.456;2023-04-29T08:53:40;3.65;;;1.95;;
67554;SDS011;54385;53.516;49.456;2023-04-29T08:56:15;2.85;;;1.80;;
67554;SDS011;54385;53.516;49.456;2023-04-29T08:58:46;7.47;;;1.90;;
67554;SDS011;54385;53.516;49.456;2023-04-29T09:01:19;3.25;;;1.80;;
67554;SDS011;54385;53.516;49.456;2023-04-29T09:06:42;3.00;;;2.17;;
67554;SDS011;54385;53.516;49.456;2023-04-29T09:09:08;5.65;;;2.30;;
67554;SDS011;54385;53.516;49.456;2023-04-29T09:11:36;4.25;;;1.83;;
67554;SDS011;54385;53.516;49.456;2023-04-29T09:14:02;4.75;;;1.92;;
67554;SDS011;54385;53.516;49.456;2023-04-29T09:16:29;7.78;;;2.30;;
67554;SDS011;54385;53.516;49.456;2023-04-29T09:18:55;7.70;;;2.05;;
67554;SDS011;54385;53.516;49.456;2023-04-29T09:21:23;13.02;;;2.92;;
67554;SDS011;54385;53.516;49.456;2023-04-29T09:23:53;4.80;;;2.03;;
67554;SDS011;54385;53.516;49.456;2023-04-29T09:26:20;6.97;;;2.10;;
67554;SDS011;54385;53.516;49.456;2023-04-29T09:31:45;3.88;;;1.60;;
67554;SDS011;54385;53.516;49.456;2023-04-29T09:34:12;4.55;;;1.95;;
67554;SDS011;54385;53.516;49.456;2023-04-29T09:36:40;2.00;;;1.58;;
67554;SDS011;54385;53.516;49.456;2023-04-29T09:39:14;2.17;;;1.60;;
67554;SDS011;54385;53.516;49.456;2023-04-29T09:44:24;6.38;;;1.80;;
67554;SDS011;54385;53.516;49.456;2023-04-29T09:46:56;7.20;;;1.83;;
67554;SDS011;54385;53.516;49.456;2023-04-29T09:49:31;3.22;;;1.90;;
67554;SDS011;54385;53.516;49.456;2023-04-29T09:52:04;5.47;;;2.20;;
67554;SDS011;54385;53.516;49.456;2023-04-29T09:54:32;3.03;;;1.98;;
67554;SDS011;54385;53.516;49.456;2023-04-29T09:57:01;2.97;;;1.90;;
67554;SDS011;54385;53.516;49.456;2023-04-29T09:59:31;6.15;;;2.63;;
67554;SDS011;54385;53.516;49.456;2023-04-29T10:02:00;4.65;;;2.17;;
67554;SDS011;54385;53.516;49.456;2023-04-29T10:04:34;2.35;;;1.80;;
67554;SDS011;54385;53.516;49.456;2023-04-29T10:07:05;3.78;;;1.75;;
67554;SDS011;54385;53.516;49.456;2023-04-29T10:09:34;2.15;;;1.70;;
67554;SDS011;54385;53.516;49.456;2023-04-29T10:12:04;3.85;;;1.85;;
67554;SDS011;54385;53.516;49.456;2023-04-29T10:14:35;2.92;;;1.80;;
67554;SDS011;54385;53.516;49.456;2023-04-29T10:17:09;1.77;;;1.30;;
67554;SDS011;54385;53.516;49.456;2023-04-29T10:19:54;20.58;;;2.40;;
67554;SDS011;54385;53.516;49.456;2023-04-29T10:22:28;2.03;;;1.40;;
67554;SDS011;54385;53.516;49.456;2023-04-29T10:25:23;4.38;;;1.70;;
67554;SDS011;54385;53.516;49.456;2023-04-29T10:27:50;3.63;;;1.50;;
67554;SDS011;54385;53.516;49.456;2023-04-29T10:30:18;3.72;;;1.85;;
67554;SDS011;54385;53.516;49.456;2023-04-29T10:32:47;3.05;;;1.55;;
67554;SDS011;54385;53.516;49.456;2023-04-29T10:35:15;3.20;;;1.60;;
67554;SDS011;54385;53.516;49.456;2023-04-29T10:37:47;2.78;;;1.67;;
67554;SDS011;54385;53.516;49.456;2023-04-29T10:40:14;2.13;;;1.70;;
67554;SDS011;54385;53.516;49.456;2023-04-29T10:42:52;2.10;;;1.42;;
67554;SDS011;54385;53.516;49.456;2023-04-29T10:45:24;3.28;;;1.80;;
67554;SDS011;54385;53.516;49.456;2023-04-29T10:50:38;4.03;;;2.20;;
67554;SDS011;54385;53.516;49.456;2023-04-29T10:53:14;6.72;;;2.08;;
67554;SDS011;54385;53.516;49.456;2023-04-29T10:55:48;2.45;;;1.95;;
67554;SDS011;54385;53.516;49.456;2023-04-29T10:58:36;4.65;;;2.30;;
67554;SDS011;54385;53.516;49.456;2023-04-29T11:01:03;2.88;;;1.83;;
67554;SDS011;54385;53.516;49.456;2023-04-29T11:09:12;4.70;;;1.95;;
67554;SDS011;54385;53.516;49.456;2023-04-29T11:14:24;2.20;;;1.67;;
67554;SDS011;54385;53.516;49.456;2023-04-29T11:16:59;6.90;;;1.70;;
67554;SDS011;54385;53.516;49.456;2023-04-29T11:19:32;4.53;;;1.73;;
67554;SDS011;54385;53.516;49.456;2023-04-29T11:24:41;7.18;;;1.60;;
67554;SDS011;54385;53.516;49.456;2023-04-29T11:27:17;4.38;;;1.90;;
67554;SDS011;54385;53.516;49.456;2023-04-29T11:29:45;2.08;;;1.73;;
67554;SDS011;54385;53.516;49.456;2023-04-29T11:32:12;7.93;;;2.13;;
67554;SDS011;54385;53.516;49.456;2023-04-29T11:34:39;3.28;;;1.75;;
67554;SDS011;54385;53.516;49.456;2023-04-29T11:37:05;3.60;;;1.70;;
67554;SDS011;54385;53.516;49.456;2023-04-29T11:39:32;4.18;;;1.95;;
67554;SDS011;54385;53.516;49.456;2023-04-29T11:42:05;5.07;;;2.17;;
67554;SDS011;54385;53.516;49.456;2023-04-29T11:44:35;5.88;;;2.42;;
67554;SDS011;54385;53.516;49.456;2023-04-29T11:47:03;6.15;;;2.58;;
67554;SDS011;54385;53.516;49.456;2023-04-29T11:49:32;3.50;;;2.47;;
67554;SDS011;54385;53.516;49.456;2023-04-29T11:52:00;4.72;;;2.25;;
67554;SDS011;54385;53.516;49.456;2023-04-29T11:54:26;3.63;;;1.60;;
67554;SDS011;54385;53.516;49.456;2023-04-29T11:56:55;4.30;;;1.80;;
67554;SDS011;54385;53.516;49.456;2023-04-29T11:59:23;8.57;;;1.73;;
67554;SDS011;54385;53.516;49.456;2023-04-29T12:01:49;4.28;;;2.45;;
67554;SDS011;54385;53.516;49.456;2023-04-29T12:04:16;3.03;;;2.00;;
67554;SDS011;54385;53.516;49.456;2023-04-29T12:06:44;10.07;;;1.83;;
67554;SDS011;54385;53.516;49.456;2023-04-29T12:09:11;3.70;;;1.90;;
67554;SDS011;54385;53.516;49.456;2023-04-29T12:11:40;1.95;;;1.73;;
67554;SDS011;54385;53.516;49.456;2023-04-29T12:14:06;6.53;;;2.03;;
67554;SDS011;54385;53.516;49.456;2023-04-29T12:16:33;3.67;;;1.70;;
67554;SDS011;54385;53.516;49.456;2023-04-29T12:19:00;6.40;;;1.80;;
67554;SDS011;54385;53.516;49.456;2023-04-29T12:21:27;6.00;;;3.17;;
67554;SDS011;54385;53.516;49.456;2023-04-29T12:23:57;10.57;;;2.55;;
67554;SDS011;54385;53.516;49.456;2023-04-29T12:26:26;3.78;;;1.90;;
67554;SDS011;54385;53.516;49.456;2023-04-29T12:28:55;2.63;;;1.70;;
67554;SDS011;54385;53.516;49.456;2023-04-29T12:31:31;3.47;;;1.85;;
67554;SDS011;54385;53.516;49.456;2023-04-29T12:33:59;2.08;;;1.65;;
67554;SDS011;54385;53.516;49.456;2023-04-29T12:36:28;5.53;;;1.98;;
67554;SDS011;54385;53.516;49.456;2023-04-29T12:38:54;3.45;;;1.52;;
67554;SDS011;54385;53.516;49.456;2023-04-29T12:41:34;2.60;;;1.88;;
67554;SDS011;54385;53.516;49.456;2023-04-29T12:44:02;4.57;;;1.70;;
67554;SDS011;54385;53.516;49.456;2023-04-29T12:46:34;3.78;;;1.90;;
67554;SDS011;54385;53.516;49.456;2023-04-29T12:49:05;6.28;;;1.90;;
67554;SDS011;54385;53.516;49.456;2023-04-29T12:51:33;3.53;;;1.60;;
67554;SDS011;54385;53.516;49.456;2023-04-29T12:54:00;3.00;;;1.77;;
67554;SDS011;54385;53.516;49.456;2023-04-29T12:56:31;2.88;;;1.65;;
67554;SDS011;54385;53.516;49.456;2023-04-29T12:59:05;2.75;;;1.67;;
67554;SDS011;54385;53.516;49.456;2023-04-29T13:01:32;5.80;;;1.92;;
67554;SDS011;54385;53.516;49.456;2023-04-29T13:03:59;2.03;;;1.55;;
67554;SDS011;54385;53.516;49.456;2023-04-29T13:06:25;2.97;;;2.03;;
67554;SDS011;54385;53.516;49.456;2023-04-29T13:08:52;3.35;;;1.60;;
67554;SDS011;54385;53.516;49.456;2023-04-29T13:11:19;2.72;;;1.60;;
67554;SDS011;54385;53.516;49.456;2023-04-29T13:13:45;6.38;;;2.03;;
67554;SDS011;54385;53.516;49.456;2023-04-29T13:16:12;3.70;;;1.98;;
67554;SDS011;54385;53.516;49.456;2023-04-29T13:18:39;4.20;;;1.73;;
67554;SDS011;54385;53.516;49.456;2023-04-29T13:21:05;6.18;;;1.77;;
67554;SDS011;54385;53.516;49.456;2023-04-29T13:23:31;3.03;;;1.80;;
67554;SDS011;54385;53.516;49.456;2023-04-29T13:25:58;22.70;;;2.72;;
67554;SDS011;54385;53.516;49.456;2023-04-29T13:28:24;2.28;;;1.63;;
67554;SDS011;54385;53.516;49.456;2023-04-29T13:30:51;2.47;;;1.70;;
67554;SDS011;54385;53.516;49.456;2023-04-29T13:33:17;3.22;;;1.77;;
67554;SDS011;54385;53.516;49.456;2023-04-29T13:35:44;2.40;;;1.42;;
67554;SDS011;54385;53.516;49.456;2023-04-29T13:38:11;2.15;;;1.70;;
67554;SDS011;54385;53.516;49.456;2023-04-29T13:40:38;4.57;;;1.88;;
67554;SDS011;54385;53.516;49.456;2023-04-29T13:43:05;5.53;;;1.83;;
67554;SDS011;54385;53.516;49.456;2023-04-29T13:45:31;3.10;;;1.98;;
67554;SDS011;54385;53.516;49.456;2023-04-29T13:48:00;3.85;;;1.65;;
67554;SDS011;54385;53.516;49.456;2023-04-29T13:50:26;1.90;;;1.42;;
67554;SDS011;54385;53.516;49.456;2023-04-29T13:52:53;5.97;;;1.90;;
67554;SDS011;54385;53.516;49.456;2023-04-29T13:55:21;2.78;;;1.90;;
67554;SDS011;54385;53.516;49.456;2023-04-29T13:57:50;2.72;;;1.70;;
67554;SDS011;54385;53.516;49.456;2023-04-29T14:00:18;3.45;;;2.17;;
67554;SDS011;54385;53.516;49.456;2023-04-29T14:02:44;3.83;;;2.50;;
67554;SDS011;54385;53.516;49.456;2023-04-29T14:05:11;4.38;;;2.42;;
67554;SDS011;54385;53.516;49.456;2023-04-29T14:07:37;4.40;;;2.25;;
67554;SDS011;54385;53.516;49.456;2023-04-29T14:10:04;6.30;;;1.88;;
67554;SDS011;54385;53.516;49.456;2023-04-29T14:12:30;6.35;;;2.28;;
67554;SDS011;54385;53.516;49.456;2023-04-29T14:14:57;5.15;;;1.95;;
67554;SDS011;54385;53.516;49.456;2023-04-29T14:17:23;4.85;;;2.10;;
67554;SDS011;54385;53.516;49.456;2023-04-29T14:19:50;2.40;;;1.52;;
67554;SDS011;54385;53.516;49.456;2023-04-29T14:22:16;2.38;;;1.60;;
67554;SDS011;54385;53.516;49.456;2023-04-29T14:24:43;1.80;;;1.70;;
67554;SDS011;54385;53.516;49.456;2023-04-29T14:27:12;3.35;;;1.77;;
67554;SDS011;54385;53.516;49.456;2023-04-29T14:29:38;4.18;;;1.80;;
67554;SDS011;54385;53.516;49.456;2023-04-29T14:32:04;3.92;;;1.80;;
67554;SDS011;54385;53.516;49.456;2023-04-29T14:34:32;3.63;;;1.70;;
67554;SDS011;54385;53.516;49.456;2023-04-29T14:36:58;5.45;;;2.13;;
67554;SDS011;54385;53.516;49.456;2023-04-29T14:39:25;6.05;;;2.30;;
67554;SDS011;54385;53.516;49.456;2023-04-29T14:41:52;4.00;;;1.95;;
67554;SDS011;54385;53.516;49.456;2023-04-29T14:44:18;3.67;;;1.88;;
67554;SDS011;54385;53.516;49.456;2023-04-29T14:46:44;3.17;;;1.80;;
67554;SDS011;54385;53.516;49.456;2023-04-29T14:49:11;1.88;;;1.63;;
67554;SDS011;54385;53.516;49.456;2023-04-29T14:51:38;7.63;;;1.98;;
67554;SDS011;54385;53.516;49.456;2023-04-29T14:54:05;3.65;;;1.80;;
67554;SDS011;54385;53.516;49.456;2023-04-29T14:56:32;3.17;;;1.75;;
67554;SDS011;54385;53.516;49.456;2023-04-29T14:59:01;3.08;;;2.10;;
67554;SDS011;54385;53.516;49.456;2023-04-29T15:01:27;5.25;;;1.90;;
67554;SDS011;54385;53.516;49.456;2023-04-29T15:03:54;4.57;;;1.85;;
67554;SDS011;54385;53.516;49.456;2023-04-29T15:06:20;3.55;;;1.95;;
67554;SDS011;54385;53.516;49.456;2023-04-29T15:08:47;3.10;;;2.17;;
67554;SDS011;54385;53.516;49.456;2023-04-29T15:11:13;6.15;;;2.00;;
67554;SDS011;54385;53.516;49.456;2023-04-29T15:13:40;4.60;;;2.28;;
67554;SDS011;54385;53.516;49.456;2023-04-29T15:16:06;4.75;;;2.28;;
67554;SDS011;54385;53.516;49.456;2023-04-29T15:18:33;6.25;;;2.63;;
67554;SDS011;54385;53.516;49.456;2023-04-29T15:21:00;5.32;;;2.55;;
67554;SDS011;54385;53.516;49.456;2023-04-29T15:23:26;11.48;;;2.55;;